Time;durP1;ratioP1;P1;durP2;ratioP2;P2;SDS_P1;SDS_P2;PMS_P1;PMS_P2;Temp;Humidity;BMP_temperature;BMP_pressure;BME280_temperature;BME280_humidity;BME280_pressure;Samples;Min_cycle;Max_cycle;Signal;HPM_P1;HPM_P2
2022/10/10 00:01:13;;;;;;;2.58;0.30;;;;;;;8.76;100.00;100354.41;1755059;79;21115;-48
2022/10/10 00:03:40;;;;;;;1.02;0.40;;;;;;;8.72;100.00;100350.92;1770938;79;21059;-49
2022/10/10 00:06:07;;;;;;;0.45;0.30;;;;;;;8.71;100.00;100354.53;1758680;79;22236;-48
2022/10/10 00:08:34;;;;;;;2.33;0.40;;;;;;;8.69;100.00;100360.41;1704051;82;21048;-48
2022/10/10 00:11:01;;;;;;;1.55;0.35;;;;;;;8.67;100.00;100359.14;1759170;79;21046;-49
2022/10/10 00:13:28;;;;;;;0.62;0.23;;;;;;;8.66;100.00;100360.52;1760088;79;21053;-48
2022/10/10 00:15:56;;;;;;;4.08;0.30;;;;;;;8.66;100.00;100364.09;1762428;79;21293;-48
2022/10/10 00:18:22;;;;;;;4.97;0.60;;;;;;;8.64;100.00;100365.05;1760090;79;21074;-48
2022/10/10 00:20:51;;;;;;;1.72;0.30;;;;;;;8.62;100.00;100363.75;1760761;79;21052;-48
2022/10/10 00:23:18;;;;;;;1.70;0.35;;;;;;;8.61;100.00;100361.11;1760297;79;21089;-48
2022/10/10 00:25:46;;;;;;;1.05;0.30;;;;;;;8.60;100.00;100357.54;1759392;79;21094;-48
2022/10/10 00:28:13;;;;;;;1.12;0.37;;;;;;;8.59;100.00;100361.64;1757388;79;21056;-48
2022/10/10 00:30:39;;;;;;;1.25;0.40;;;;;;;8.58;100.00;100357.20;1766839;79;22690;-49
2022/10/10 00:33:07;;;;;;;4.03;0.30;;;;;;;8.57;100.00;100359.45;1764471;79;21618;-49
2022/10/10 00:35:34;;;;;;;1.05;0.30;;;;;;;8.54;100.00;100361.77;1758434;79;21052;-49
2022/10/10 00:38:00;;;;;;;2.98;0.40;;;;;;;8.55;100.00;100366.66;1761598;79;21093;-49
2022/10/10 00:40:27;;;;;;;2.83;0.30;;;;;;;8.51;100.00;100369.02;1762178;79;21076;-49
2022/10/10 00:42:53;;;;;;;4.72;0.45;;;;;;;8.47;100.00;100371.39;1760841;79;21116;-48
2022/10/10 00:45:38;;;;;;;0.60;0.30;;;;;;;8.44;100.00;100366.10;1759377;79;21043;-48
2022/10/10 00:48:12;;;;;;;0.65;0.30;;;;;;;8.41;100.00;100366.21;1749303;79;21058;-48
2022/10/10 00:50:48;;;;;;;5.97;0.50;;;;;;;8.38;100.00;100366.29;1759719;79;21483;-49
2022/10/10 00:53:17;;;;;;;2.87;0.30;;;;;;;8.35;100.00;100364.11;1754566;79;21041;-48
2022/10/10 00:55:44;;;;;;;0.80;0.30;;;;;;;8.33;100.00;100363.30;1753367;79;21078;-49
2022/10/10 00:58:12;;;;;;;0.80;0.30;;;;;;;8.31;100.00;100371.84;1752358;79;21633;-48
2022/10/10 01:00:39;;;;;;;1.40;0.30;;;;;;;8.28;100.00;100370.55;1734501;79;21058;-49
2022/10/10 01:03:05;;;;;;;3.35;0.60;;;;;;;8.28;100.00;100369.20;1751216;79;21077;-49
2022/10/10 01:05:32;;;;;;;0.93;0.33;;;;;;;8.27;100.00;100369.25;1752862;79;21070;-49
2022/10/10 01:07:58;;;;;;;2.00;0.40;;;;;;;8.25;100.00;100369.28;1751331;79;21172;-48
2022/10/10 01:10:25;;;;;;;0.30;0.30;;;;;;;8.24;100.00;100374.26;1751549;79;21029;-48
2022/10/10 01:13:15;;;;;;;3.20;0.30;;;;;;;8.22;100.00;100377.90;1753787;79;21316;-48
2022/10/10 01:15:59;;;;;;;3.83;0.40;;;;;;;8.20;100.00;100378.39;1756199;79;21109;-48
2022/10/10 01:18:49;;;;;;;2.25;0.25;;;;;;;8.17;100.00;100382.03;1746753;79;21508;-48
2022/10/10 01:21:51;;;;;;;1.85;0.20;;;;;;;8.15;100.00;100374.52;1751553;79;21857;-48
2022/10/10 01:24:51;;;;;;;2.98;0.40;;;;;;;8.15;100.00;100375.86;1756021;79;21073;-48
2022/10/10 01:27:27;;;;;;;4.65;0.30;;;;;;;8.15;100.00;100381.69;1750868;80;21061;-49
2022/10/10 01:30:09;;;;;;;2.87;0.30;;;;;;;8.13;100.00;100387.55;1751944;80;20911;-49
2022/10/10 01:32:55;;;;;;;0.78;0.30;;;;;;;8.11;100.00;100384.90;1755442;79;21064;-49
2022/10/10 01:35:48;;;;;;;1.62;0.30;;;;;;;8.08;100.00;100383.63;1751112;79;22130;-48
2022/10/10 01:38:25;;;;;;;0.47;0.37;;;;;;;8.06;100.00;100382.83;1693363;82;21004;-48
2022/10/10 01:40:57;;;;;;;4.72;0.30;;;;;;;8.03;100.00;100389.59;1756480;79;21543;-48
2022/10/10 01:43:24;;;;;;;1.42;0.30;;;;;;;7.98;100.00;100391.08;1748873;79;21587;-49
2022/10/10 01:45:51;;;;;;;0.85;0.35;;;;;;;7.94;100.00;100396.55;1753538;79;21006;-48
2022/10/10 01:48:25;;;;;;;1.35;0.30;;;;;;;7.90;100.00;100397.11;1750991;79;22376;-48
2022/10/10 01:51:44;;;;;;;1.70;0.65;;;;;;;7.88;100.00;100404.31;1749664;79;21200;-48
2022/10/10 01:54:40;;;;;;;1.35;0.23;;;;;;;7.87;100.00;100403.00;1751697;79;21505;-47
2022/10/10 01:57:27;;;;;;;2.08;0.30;;;;;;;7.84;100.00;100409.31;1753886;79;21114;-48
2022/10/10 02:00:09;;;;;;;4.12;0.30;;;;;;;7.84;100.00;100411.12;1758857;79;21536;-47
2022/10/10 02:03:06;;;;;;;2.62;0.30;;;;;;;7.82;100.00;100411.64;1756305;79;21114;-48
2022/10/10 02:05:53;;;;;;;1.32;0.30;;;;;;;7.80;100.00;100419.72;1755724;79;20907;-49
2022/10/10 02:08:35;;;;;;;0.53;0.30;;;;;;;7.79;100.00;100423.77;1696108;82;20896;-47
2022/10/10 02:11:07;;;;;;;1.27;0.30;;;;;;;7.76;100.00;100425.18;1763912;79;21433;-48
2022/10/10 02:14:01;;;;;;;1.67;0.30;;;;;;;7.71;100.00;100425.31;1752570;79;20885;-48
2022/10/10 02:16:36;;;;;;;1.53;0.30;;;;;;;7.68;100.00;100426.72;1750979;79;21518;-50
2022/10/10 02:19:06;;;;;;;4.25;0.30;;;;;;;7.65;100.00;100433.52;1744107;79;20931;-48
2022/10/10 02:21:32;;;;;;;2.12;0.78;;;;;;;7.63;100.00;100434.02;1740541;79;20938;-49
2022/10/10 02:24:01;;;;;;;1.95;0.33;;;;;;;7.63;100.00;100433.13;1755929;79;20919;-48
2022/10/10 02:26:29;;;;;;;1.35;0.30;;;;;;;7.60;100.00;100432.28;1753257;79;20978;-48
2022/10/10 02:29:00;;;;;;;2.27;0.20;;;;;;;7.57;100.00;100435.52;1755777;79;21108;-48
2022/10/10 02:31:39;;;;;;;1.30;0.30;;;;;;;7.52;100.00;100443.66;1735860;80;20899;-49
2022/10/10 02:34:19;;;;;;;4.03;0.30;;;;;;;7.53;100.00;100447.21;1749866;79;20938;-48
2022/10/10 02:36:53;;;;;;;4.72;0.40;;;;;;;7.53;100.00;100445.41;1755133;79;20955;-49
2022/10/10 02:39:22;;;;;;;0.57;0.20;;;;;;;7.53;100.00;100441.40;1756806;79;21018;-49
2022/10/10 02:41:50;;;;;;;1.75;0.30;;;;;;;7.54;100.00;100444.50;1754805;79;21370;-49
2022/10/10 02:44:16;;;;;;;1.55;0.30;;;;;;;7.52;100.00;100440.97;1753790;79;21026;-49
2022/10/10 02:46:42;;;;;;;3.17;0.30;;;;;;;7.53;100.00;100445.88;1744849;80;21329;-48
2022/10/10 02:49:09;;;;;;;1.57;0.40;;;;;;;7.50;100.00;100445.48;1723196;81;21526;-48
2022/10/10 02:51:38;;;;;;;0.55;0.30;;;;;;;7.47;100.00;100446.03;1701496;80;21101;-48
2022/10/10 02:54:06;;;;;;;1.45;0.20;;;;;;;7.46;100.00;100445.15;1723928;80;21625;-48
2022/10/10 02:56:33;;;;;;;0.88;0.23;;;;;;;7.46;100.00;100449.63;1724112;81;21685;-48
2022/10/10 02:59:00;;;;;;;3.10;0.40;;;;;;;7.45;100.00;100458.58;1721997;81;21058;-49
2022/10/10 03:01:26;;;;;;;0.68;0.30;;;;;;;7.40;100.00;100455.14;1727426;81;21049;-48
2022/10/10 03:03:53;;;;;;;1.35;0.30;;;;;;;7.37;100.00;100460.56;1728947;80;21143;-48
2022/10/10 03:06:19;;;;;;;3.45;0.30;;;;;;;7.36;100.00;100455.66;1721733;81;21837;-48
2022/10/10 03:08:45;;;;;;;0.80;0.30;;;;;;;7.34;100.00;100457.48;1724374;81;21105;-48
2022/10/10 03:11:13;;;;;;;0.60;0.20;;;;;;;7.33;100.00;100454.84;1725887;80;21065;-48
2022/10/10 03:13:39;;;;;;;1.27;0.30;;;;;;;7.32;100.00;100459.31;1724209;80;21047;-49
2022/10/10 03:16:06;;;;;;;3.75;0.40;;;;;;;7.32;100.00;100468.69;1725775;81;21088;-48
2022/10/10 03:18:34;;;;;;;0.57;0.30;;;;;;;7.30;100.00;100462.97;1724237;81;21730;-49
2022/10/10 03:21:00;;;;;;;0.60;0.20;;;;;;;7.28;100.00;100467.02;1729008;80;21156;-48
2022/10/10 03:23:27;;;;;;;0.55;0.30;;;;;;;7.25;100.00;100464.40;1727730;80;21393;-49
2022/10/10 03:25:54;;;;;;;1.32;0.30;;;;;;;7.23;100.00;100468.44;1724841;81;22376;-48
2022/10/10 03:28:20;;;;;;;3.60;0.30;;;;;;;7.23;100.00;100468.90;1730102;81;21102;-49
2022/10/10 03:30:47;;;;;;;1.15;0.20;;;;;;;7.21;100.00;100467.63;1729666;80;22842;-48
2022/10/10 03:33:13;;;;;;;0.53;0.25;;;;;;;7.19;100.00;100472.58;1735910;80;21579;-48
2022/10/10 03:35:40;;;;;;;1.57;0.30;;;;;;;7.16;100.00;100465.95;1727225;81;21100;-48
2022/10/10 03:38:07;;;;;;;1.90;0.30;;;;;;;7.14;100.00;100465.13;1731895;80;21631;-49
2022/10/10 03:40:33;;;;;;;0.70;0.30;;;;;;;7.11;100.00;100471.42;1729162;80;21108;-49
2022/10/10 03:43:00;;;;;;;2.83;0.30;;;;;;;7.08;100.00;100467.47;1728802;81;21134;-49
2022/10/10 03:45:27;;;;;;;0.65;0.30;;;;;;;7.05;100.00;100473.36;1727956;81;21068;-49
2022/10/10 03:47:54;;;;;;;1.22;0.20;;;;;;;7.04;100.00;100473.82;1745137;80;21545;-48
2022/10/10 03:50:20;;;;;;;0.37;0.20;;;;;;;7.05;100.00;100473.36;1753259;79;21345;-49
2022/10/10 03:52:46;;;;;;;2.87;0.30;;;;;;;7.03;100.00;100477.86;1750882;79;21108;-49
2022/10/10 03:55:13;;;;;;;1.90;0.25;;;;;;;7.02;100.00;100483.67;1751361;79;21195;-48
2022/10/10 03:57:39;;;;;;;1.12;0.30;;;;;;;7.01;100.00;100485.04;1749520;79;21089;-49
2022/10/10 04:00:08;;;;;;;5.78;0.40;;;;;;;7.01;100.00;100486.38;1750627;79;21042;-49
2022/10/10 04:02:34;;;;;;;1.37;0.40;;;;;;;7.00;100.00;100488.17;1747076;79;21057;-49
2022/10/10 04:05:00;;;;;;;2.87;0.40;;;;;;;6.99;100.00;100492.22;1749691;79;21041;-48
2022/10/10 04:07:27;;;;;;;2.77;0.30;;;;;;;6.97;100.00;100492.27;1752415;79;21115;-49
2022/10/10 04:09:55;;;;;;;1.35;0.20;;;;;;;6.97;100.00;100495.41;1751455;79;21430;-49
2022/10/10 04:12:22;;;;;;;0.30;0.25;;;;;;;6.94;100.00;100501.70;1753135;79;21046;-48
2022/10/10 04:14:49;;;;;;;0.60;0.30;;;;;;;6.90;100.00;100499.10;1751509;79;21058;-49
2022/10/10 04:17:15;;;;;;;2.22;0.30;;;;;;;6.89;100.00;100502.72;1749697;79;21061;-49
2022/10/10 04:19:42;;;;;;;1.02;0.40;;;;;;;6.88;100.00;100503.17;1749490;79;21520;-49
2022/10/10 04:22:08;;;;;;;1.45;0.20;;;;;;;6.88;100.00;100510.32;1753065;79;21053;-48
2022/10/10 04:24:35;;;;;;;2.40;0.35;;;;;;;6.85;100.00;100504.56;1747829;79;21065;-48
2022/10/10 04:27:01;;;;;;;1.98;0.30;;;;;;;6.86;100.00;100508.13;1750152;79;21054;-48
2022/10/10 04:29:28;;;;;;;1.17;0.30;;;;;;;6.86;100.00;100505.45;1756194;79;21123;-48
2022/10/10 04:31:54;;;;;;;1.47;0.20;;;;;;;6.87;100.00;100504.54;1752486;79;21588;-48
2022/10/10 04:34:22;;;;;;;0.65;0.30;;;;;;;6.89;100.00;100508.08;1693107;82;21398;-49
2022/10/10 04:36:48;;;;;;;0.40;0.28;;;;;;;6.90;100.00;100509.35;1751570;79;21512;-48
2022/10/10 04:39:14;;;;;;;2.25;0.20;;;;;;;6.91;100.00;100505.77;1757922;79;21096;-48
2022/10/10 04:41:41;;;;;;;4.78;0.40;;;;;;;6.93;100.00;100509.75;1755689;79;21089;-49
2022/10/10 04:44:07;;;;;;;0.60;0.20;;;;;;;6.94;100.00;100513.74;1750382;79;21714;-48
2022/10/10 04:46:33;;;;;;;1.10;1.00;;;;;;;6.93;100.00;100509.75;1753817;79;21034;-49
2022/10/10 04:49:01;;;;;;;0.98;0.30;;;;;;;6.94;100.00;100514.20;1749857;79;21690;-48
2022/10/10 04:51:28;;;;;;;1.02;0.30;;;;;;;6.94;100.00;100518.21;1737068;80;21026;-49
2022/10/10 04:53:55;;;;;;;1.40;0.30;;;;;;;6.95;100.00;100526.67;1754560;79;21101;-49
2022/10/10 04:56:21;;;;;;;1.02;0.30;;;;;;;6.95;100.00;100522.66;1751265;79;22101;-48
2022/10/10 04:58:48;;;;;;;0.60;0.28;;;;;;;6.94;100.00;100525.78;1751482;79;21111;-48
2022/10/10 05:01:14;;;;;;;1.95;0.30;;;;;;;6.95;100.00;100521.31;1756121;79;21513;-49
2022/10/10 05:03:42;;;;;;;1.77;0.30;;;;;;;6.97;100.00;100528.86;1747458;79;21093;-48
2022/10/10 05:06:09;;;;;;;2.62;0.30;;;;;;;6.99;100.00;100527.02;1757243;79;21033;-49
2022/10/10 05:08:35;;;;;;;0.60;0.47;;;;;;;7.03;100.00;100532.73;1748009;79;20962;-48
2022/10/10 05:11:02;;;;;;;3.60;0.40;;;;;;;7.05;100.00;100530.92;1752257;79;21081;-49
2022/10/10 05:13:33;;;;;;;3.05;0.30;;;;;;;7.11;100.00;100539.69;1760755;79;20974;-49
2022/10/10 05:15:59;;;;;;;0.45;0.30;;;;;;;7.18;100.00;100537.75;1757780;79;20926;-49
2022/10/10 05:18:26;;;;;;;2.72;0.37;;;;;;;7.26;100.00;100535.78;1758769;79;20976;-48
2022/10/10 05:20:52;;;;;;;0.80;0.20;;;;;;;7.35;100.00;100537.38;1750741;79;22112;-49
2022/10/10 05:23:18;;;;;;;3.00;0.37;;;;;;;7.45;100.00;100549.19;1754584;79;20990;-49
2022/10/10 05:25:47;;;;;;;2.05;0.30;;;;;;;7.52;100.00;100545.45;1753382;79;20985;-49
2022/10/10 05:28:14;;;;;;;0.70;0.40;;;;;;;7.59;100.00;100548.41;1753635;79;20900;-50
2022/10/10 05:30:41;;;;;;;0.60;0.35;;;;;;;7.63;100.00;100545.66;1760920;79;20905;-48
2022/10/10 05:33:07;;;;;;;1.22;0.30;;;;;;;7.67;100.00;100546.88;1752067;79;21051;-49
2022/10/10 05:35:34;;;;;;;1.85;0.28;;;;;;;7.74;100.00;100546.30;1753062;79;21070;-49
2022/10/10 05:38:00;;;;;;;1.67;0.30;;;;;;;7.84;100.00;100547.81;1695887;82;21577;-49
2022/10/10 05:40:27;;;;;;;1.90;0.28;;;;;;;7.90;100.00;100551.25;1757581;79;21111;-49
2022/10/10 05:42:53;;;;;;;0.88;0.30;;;;;;;7.97;100.00;100554.66;1748181;79;21069;-49
2022/10/10 05:45:21;;;;;;;0.50;0.30;;;;;;;8.05;100.00;100551.31;1751207;79;21139;-49
2022/10/10 05:47:48;;;;;;;3.40;0.37;;;;;;;8.11;100.00;100558.31;1745279;79;21053;-49
2022/10/10 05:50:26;;;;;;;1.47;0.30;;;;;;;8.11;100.00;100559.20;1749648;79;21561;-49
2022/10/10 05:52:54;;;;;;;1.62;0.40;;;;;;;8.13;100.00;100561.38;1748214;80;22335;-48
2022/10/10 05:55:21;;;;;;;0.80;0.30;;;;;;;8.14;100.00;100562.27;1749069;79;21518;-49
2022/10/10 05:57:47;;;;;;;2.50;0.40;;;;;;;8.13;100.00;100572.56;1751372;79;21083;-49
2022/10/10 06:00:14;;;;;;;1.52;0.35;;;;;;;8.10;100.00;100564.13;1747217;79;22110;-49
2022/10/10 06:02:40;;;;;;;0.93;0.30;;;;;;;8.05;100.00;100570.54;1748410;79;21553;-49
2022/10/10 06:05:08;;;;;;;2.47;0.20;;;;;;;8.01;100.00;100571.06;1749817;79;21050;-48
2022/10/10 06:07:36;;;;;;;0.93;0.30;;;;;;;8.02;100.00;100567.47;1742285;79;21049;-49
2022/10/10 06:10:04;;;;;;;0.45;0.30;;;;;;;8.07;100.00;100572.73;1745216;80;21209;-48
2022/10/10 06:12:30;;;;;;;0.37;0.20;;;;;;;8.12;100.00;100569.46;1752684;80;21531;-48
2022/10/10 06:14:57;;;;;;;0.82;0.30;;;;;;;8.18;100.00;100571.98;1745660;80;21083;-48
2022/10/10 06:17:23;;;;;;;2.15;0.28;;;;;;;8.23;100.00;100576.33;1749593;79;21367;-49
2022/10/10 06:19:51;;;;;;;1.00;0.30;;;;;;;8.31;100.00;100581.06;1677598;82;21630;-49
2022/10/10 06:22:18;;;;;;;0.53;0.33;;;;;;;8.37;100.00;100584.03;1685935;82;22901;-49
2022/10/10 06:24:45;;;;;;;0.65;0.30;;;;;;;8.41;100.00;100588.88;1714513;81;21341;-48
2022/10/10 06:27:13;;;;;;;5.87;0.50;;;;;;;8.47;100.00;100577.97;1745995;79;21077;-49
2022/10/10 06:29:39;;;;;;;4.08;0.35;;;;;;;8.52;100.00;100594.81;1748614;79;21401;-48
2022/10/10 06:32:06;;;;;;;0.80;0.30;;;;;;;8.57;100.00;100592.91;1755393;79;21038;-49
2022/10/10 06:34:34;;;;;;;3.08;0.40;;;;;;;8.63;100.00;100590.94;1747576;79;21726;-49
2022/10/10 06:37:00;;;;;;;3.50;0.30;;;;;;;8.63;100.00;100590.05;1745016;79;21041;-49
2022/10/10 06:39:26;;;;;;;0.82;0.30;;;;;;;8.62;100.00;100589.63;1746214;80;21252;-49
2022/10/10 06:41:53;;;;;;;0.35;0.28;;;;;;;8.64;100.00;100594.51;1749390;79;22009;-49
2022/10/10 06:44:19;;;;;;;0.50;0.30;;;;;;;8.68;100.00;100592.14;1744580;79;21128;-48
2022/10/10 06:46:45;;;;;;;0.60;0.30;;;;;;;8.74;100.00;100600.05;1740889;79;22528;-48
2022/10/10 06:49:12;;;;;;;1.35;0.65;;;;;;;8.81;100.00;100590.90;1753636;79;21072;-48
2022/10/10 06:51:39;;;;;;;4.00;0.40;;;;;;;8.89;100.00;100594.25;1756729;79;21101;-49
2022/10/10 06:54:05;;;;;;;0.90;0.40;;;;;;;8.96;100.00;100594.95;1697115;82;21729;-48
2022/10/10 06:56:31;;;;;;;0.90;0.30;;;;;;;9.03;100.00;100585.79;1726596;80;21173;-49
2022/10/10 06:58:58;;;;;;;1.25;0.30;;;;;;;9.11;100.00;100598.53;1706811;81;21633;-49
2022/10/10 07:01:27;;;;;;;0.40;0.30;;;;;;;9.18;100.00;100592.55;1706031;81;21056;-49
2022/10/10 07:03:53;;;;;;;0.70;0.30;;;;;;;9.24;100.00;100595.92;1697139;82;21083;-49
2022/10/10 07:06:20;;;;;;;1.70;0.40;;;;;;;9.27;100.00;100591.78;1702148;82;21138;-49
2022/10/10 07:08:47;;;;;;;0.68;0.20;;;;;;;9.31;100.00;100587.22;1699047;82;21090;-49
2022/10/10 07:11:15;;;;;;;1.55;0.30;;;;;;;9.34;100.00;100589.36;1711077;81;22584;-48
2022/10/10 07:13:43;;;;;;;5.05;0.40;;;;;;;9.39;100.00;100587.41;1727903;80;20941;-49
2022/10/10 07:16:11;;;;;;;0.68;0.30;;;;;;;9.45;100.00;100595.73;1695416;81;21142;-49
2022/10/10 07:18:39;;;;;;;1.95;0.30;;;;;;;9.49;100.00;100587.55;1723317;80;22104;-49
2022/10/10 07:21:06;;;;;;;2.45;0.40;;;;;;;9.56;100.00;100592.73;1726721;81;21048;-49
2022/10/10 07:23:35;;;;;;;1.85;0.40;;;;;;;9.62;100.00;100593.41;1726017;80;21453;-48
2022/10/10 07:26:06;;;;;;;0.62;0.30;;;;;;;9.66;100.00;100587.02;1697943;82;21071;-48
2022/10/10 07:28:33;;;;;;;1.50;0.50;;;;;;;9.71;100.00;100591.78;1708981;82;21137;-49
2022/10/10 07:31:04;;;;;;;0.68;0.50;;;;;;;9.76;100.00;100597.91;1689934;82;22363;-49
2022/10/10 07:33:37;;;;;;;1.40;0.55;;;;;;;9.75;100.00;100604.22;1708252;81;21375;-49
2022/10/10 07:36:05;;;;;;;1.45;0.50;;;;;;;9.74;100.00;100599.76;1695925;81;21868;-48
2022/10/10 07:38:33;;;;;;;3.10;0.50;;;;;;;9.80;100.00;100602.25;1728919;80;20881;-48
2022/10/10 07:41:00;;;;;;;0.95;0.42;;;;;;;9.87;100.00;100605.15;1732786;80;21115;-48
2022/10/10 07:43:26;;;;;;;2.45;0.50;;;;;;;9.94;100.00;100598.26;1702623;82;21055;-48
2022/10/10 07:45:52;;;;;;;4.37;0.40;;;;;;;10.01;100.00;100602.04;1698589;82;21297;-49
2022/10/10 07:48:19;;;;;;;1.85;0.50;;;;;;;10.04;100.00;100597.88;1701967;82;21185;-48
2022/10/10 07:50:46;;;;;;;1.72;0.40;;;;;;;10.09;100.00;100595.94;1749385;79;21335;-48
2022/10/10 07:53:12;;;;;;;0.78;0.30;;;;;;;10.11;100.00;100599.94;1756643;79;21089;-49
2022/10/10 07:55:41;;;;;;;1.65;0.30;;;;;;;10.11;100.00;100596.78;1753893;79;21050;-48
2022/10/10 07:58:09;;;;;;;1.10;0.70;;;;;;;10.13;100.00;100598.05;1758917;79;21617;-48
2022/10/10 08:00:37;;;;;;;2.27;0.30;;;;;;;10.17;100.00;100594.34;1751974;79;21847;-49
2022/10/10 08:03:03;;;;;;;1.75;0.30;;;;;;;10.23;100.00;100595.50;1760645;79;21316;-47
2022/10/10 08:05:30;;;;;;;1.27;0.28;;;;;;;10.31;100.00;100592.09;1757216;79;20947;-49
2022/10/10 08:07:56;;;;;;;1.62;0.20;;;;;;;10.37;100.00;100596.41;1753227;79;20982;-48
2022/10/10 08:10:22;;;;;;;2.42;0.33;;;;;;;10.43;100.00;100597.06;1751792;79;21152;-49
2022/10/10 08:12:50;;;;;;;0.78;0.30;;;;;;;10.49;100.00;100603.58;1698090;82;21069;-49
2022/10/10 08:15:17;;;;;;;2.65;0.30;;;;;;;10.57;100.00;100596.58;1751393;79;21050;-50
2022/10/10 08:17:43;;;;;;;0.78;0.25;;;;;;;10.63;100.00;100592.81;1747794;79;21665;-49
2022/10/10 08:20:10;;;;;;;2.35;0.35;;;;;;;10.69;100.00;100588.09;1749060;79;21088;-49
2022/10/10 08:22:36;;;;;;;1.87;0.23;;;;;;;10.79;100.00;100593.56;1747790;79;21105;-49
2022/10/10 08:25:03;;;;;;;0.80;0.30;;;;;;;10.91;100.00;100594.45;1750055;79;21109;-49
2022/10/10 08:27:30;;;;;;;0.53;0.20;;;;;;;11.04;100.00;100596.25;1754057;79;21069;-50
2022/10/10 08:29:57;;;;;;;0.88;0.30;;;;;;;11.14;100.00;100603.06;1755457;79;21052;-49
2022/10/10 08:32:24;;;;;;;0.95;0.30;;;;;;;11.17;100.00;100593.49;1692825;82;21065;-49
2022/10/10 08:34:50;;;;;;;0.50;0.20;;;;;;;11.14;100.00;100593.63;1748856;79;21101;-49
2022/10/10 08:37:17;;;;;;;0.82;0.25;;;;;;;11.16;100.00;100591.73;1751525;79;21216;-49
2022/10/10 08:39:43;;;;;;;1.30;0.30;;;;;;;11.22;100.00;100598.27;1748905;79;21983;-50
2022/10/10 08:42:21;;;;;;;1.72;0.30;;;;;;;11.28;100.00;100591.28;1748895;79;21152;-50
2022/10/10 08:44:54;;;;;;;4.03;0.70;;;;;;;11.36;100.00;100590.52;1752043;79;21125;-50
2022/10/10 08:47:25;;;;;;;1.17;0.53;;;;;;;11.42;100.00;100590.74;1754464;80;21053;-50
2022/10/10 08:50:17;;;;;;;1.27;0.30;;;;;;;11.53;100.00;100597.08;1758849;79;21106;-50
2022/10/10 08:52:49;;;;;;;0.75;0.30;;;;;;;11.61;100.00;100603.05;1757965;79;21432;-50
2022/10/10 08:55:32;;;;;;;0.75;0.20;;;;;;;11.64;100.00;100602.94;1761686;79;20966;-50
2022/10/10 08:58:22;;;;;;;2.37;0.30;;;;;;;11.64;100.00;100589.46;1761767;79;21954;-50
2022/10/10 09:01:19;;;;;;;0.65;0.20;;;;;;;11.64;100.00;100587.64;1759307;79;22312;-50
2022/10/10 09:03:48;;;;;;;0.47;0.20;;;;;;;11.66;100.00;100588.91;1758512;79;22163;-50
2022/10/10 09:06:46;;;;;;;1.20;0.17;;;;;;;11.73;100.00;100599.89;1764292;79;22191;-50
2022/10/10 09:09:49;;;;;;;0.20;0.10;;;;;;;11.78;100.00;100591.63;1758352;79;21363;-50
2022/10/10 09:12:41;;;;;;;1.05;0.20;;;;;;;11.84;100.00;100592.73;1760149;79;21026;-50
2022/10/10 09:15:24;;;;;;;0.85;0.20;;;;;;;11.91;100.00;100588.87;1757172;79;21585;-50
2022/10/10 09:17:59;;;;;;;0.10;0.10;;;;;;;12.00;100.00;100591.16;1764306;79;22333;-51
2022/10/10 09:21:16;;;;;;;0.75;0.20;;;;;;;12.07;100.00;100587.30;1759782;79;21088;-51
2022/10/10 09:25:35;;;;;;;0.83;0.20;;;;;;;12.18;100.00;100592.23;1762189;78;22556;-48
2022/10/10 09:28:15;;;;;;;2.95;0.10;;;;;;;12.19;100.00;100596.69;1738347;80;21613;-50
2022/10/10 09:30:47;;;;;;;1.07;0.10;;;;;;;12.20;100.00;100600.68;1743542;80;20942;-50
2022/10/10 09:33:37;;;;;;;0.50;0.10;;;;;;;12.24;100.00;100598.74;1746525;80;21129;-50
2022/10/10 09:36:07;;;;;;;1.52;0.20;;;;;;;12.26;100.00;100594.14;1748819;80;21243;-50
2022/10/10 09:38:44;;;;;;;0.62;0.20;;;;;;;12.28;100.00;100590.91;1744784;81;20987;-50
2022/10/10 09:41:28;;;;;;;0.98;0.20;;;;;;;12.31;100.00;100593.49;1739183;80;21035;-49
2022/10/10 09:43:56;;;;;;;0.30;0.20;;;;;;;12.34;100.00;100591.99;1742658;80;21228;-49
2022/10/10 09:46:22;;;;;;;0.53;0.20;;;;;;;12.37;100.00;100600.85;1739383;80;21087;-49
2022/10/10 09:48:49;;;;;;;0.85;0.20;;;;;;;12.42;100.00;100589.37;1746023;80;20963;-49
2022/10/10 09:51:16;;;;;;;0.42;0.10;;;;;;;12.47;100.00;100590.08;1743330;80;21100;-49
2022/10/10 09:53:43;;;;;;;0.42;0.20;;;;;;;12.50;100.00;100591.78;1714252;80;21061;-50
2022/10/10 09:56:26;;;;;;;0.50;0.20;;;;;;;12.51;100.00;100584.94;1738176;80;21253;-48
2022/10/10 09:58:53;;;;;;;0.40;0.20;;;;;;;12.55;100.00;100580.30;1754283;79;21076;-49
2022/10/10 10:01:28;;;;;;;0.72;0.30;;;;;;;12.60;100.00;100578.25;1758184;79;21045;-48
2022/10/10 10:04:15;;;;;;;2.70;0.15;;;;;;;12.65;100.00;100576.72;1757330;79;21082;-49
2022/10/10 10:06:46;;;;;;;0.40;0.20;;;;;;;12.67;100.00;100574.38;1755297;79;21049;-46
2022/10/10 10:09:18;;;;;;;0.50;0.20;;;;;;;12.72;100.00;100583.61;1754935;80;21482;-46
2022/10/10 10:11:46;;;;;;;0.57;0.10;;;;;;;12.76;100.00;100575.80;1754285;79;21026;-48
2022/10/10 10:14:25;;;;;;;0.72;0.15;;;;;;;12.76;100.00;100569.88;1753023;79;21037;-46
2022/10/10 10:16:54;;;;;;;1.67;0.10;;;;;;;12.78;100.00;100574.75;1694373;82;21339;-47
2022/10/10 10:19:36;;;;;;;0.20;0.10;;;;;;;12.83;100.00;100575.45;1706754;81;21585;-47
2022/10/10 10:22:03;;;;;;;1.27;0.20;;;;;;;12.87;100.00;100570.77;1703231;81;21359;-47
2022/10/10 10:24:35;;;;;;;10.58;7.75;;;;;;;12.91;100.00;100587.73;1708604;81;21106;-49
2022/10/10 10:27:18;;;;;;;2.15;1.47;;;;;;;12.93;100.00;100565.08;1725136;81;20972;-46
2022/10/10 10:29:53;;;;;;;0.30;0.10;;;;;;;12.95;100.00;100572.65;1724023;81;21513;-46
2022/10/10 10:32:55;;;;;;;0.10;0.10;;;;;;;12.98;100.00;100567.59;1672544;83;21537;-48
2022/10/10 10:35:34;;;;;;;1.75;0.10;;;;;;;13.02;100.00;100561.08;1710244;81;21460;-48
2022/10/10 10:38:29;;;;;;;0.33;0.15;;;;;;;13.06;100.00;100565.41;1710716;81;21027;-47
2022/10/10 10:41:24;;;;;;;1.07;0.20;;;;;;;13.08;100.00;100560.83;1718263;81;21078;-47
2022/10/10 10:44:14;;;;;;;0.28;0.10;;;;;;;13.10;100.00;100567.89;1710283;81;21177;-49
2022/10/10 10:46:49;;;;;;;0.40;0.10;;;;;;;13.15;100.00;100570.44;1718686;81;21019;-46
2022/10/10 10:49:23;;;;;;;0.10;0.05;;;;;;;13.16;100.00;100570.38;1716646;81;21446;-46
2022/10/10 10:52:27;;;;;;;1.20;0.40;;;;;;;13.18;100.00;100570.31;1712141;81;21443;-47
2022/10/10 10:55:26;;;;;;;0.28;0.10;;;;;;;13.20;100.00;100560.28;1714491;81;21023;-48
2022/10/10 10:58:25;;;;;;;1.20;0.20;;;;;;;13.22;100.00;100575.48;1713508;81;21441;-46
2022/10/10 11:01:00;;;;;;;0.90;0.10;;;;;;;13.27;100.00;100564.95;1671178;83;21086;-49
2022/10/10 11:03:50;;;;;;;0.53;0.13;;;;;;;13.29;100.00;100567.97;1703110;81;21377;-47
2022/10/10 11:06:46;;;;;;;0.65;0.10;;;;;;;13.28;100.00;100564.86;1716599;81;21023;-46
2022/10/10 11:09:18;;;;;;;;;;;;;;;13.27;100.00;100575.27;1711097;81;21063;-47
2022/10/10 11:12:13;;;;;;;0.85;0.10;;;;;;;13.28;100.00;100560.80;1709771;81;20384;-46
2022/10/10 11:14:56;;;;;;;0.30;0.20;;;;;;;13.32;100.00;100564.25;1710036;81;21059;-46
2022/10/10 11:17:36;;;;;;;1.40;0.10;;;;;;;13.33;100.00;100556.08;1709710;82;21545;-47
2022/10/10 11:20:29;;;;;;;0.57;0.10;;;;;;;13.35;100.00;100562.77;1710425;81;21082;-48
2022/10/10 11:23:06;;;;;;;0.82;0.10;;;;;;;13.34;100.00;100553.78;1707957;81;21106;-47
2022/10/10 11:25:42;;;;;;;2.47;0.10;;;;;;;13.37;100.00;100555.44;1691119;81;21100;-49
2022/10/10 11:28:19;;;;;;;1.85;0.10;;;;;;;13.42;100.00;100554.30;1692922;82;21058;-47
2022/10/10 11:31:01;;;;;;;1.40;0.20;;;;;;;13.48;100.00;100549.05;1671275;82;21666;-46
2022/10/10 11:33:35;;;;;;;2.00;0.10;;;;;;;13.53;100.00;100555.11;1691018;82;21122;-47
2022/10/10 11:36:14;;;;;;;0.40;0.20;;;;;;;13.52;100.00;100544.80;1691297;82;21546;-45
2022/10/10 11:39:09;;;;;;;1.07;0.20;;;;;;;13.56;100.00;100550.45;1691883;82;21200;-46
2022/10/10 11:41:40;;;;;;;0.20;0.10;;;;;;;13.61;100.00;100554.27;1689055;82;21727;-47
2022/10/10 11:44:21;;;;;;;0.23;0.10;;;;;;;13.64;100.00;100557.72;1693974;82;21621;-46
2022/10/10 11:47:14;;;;;;;0.20;0.10;;;;;;;13.66;100.00;100560.83;1686076;82;21641;-46